Time;durP1;ratioP1;P1;durP2;ratioP2;P2;SDS_P1;SDS_P2;PMS_P1;PMS_P2;Temp;Humidity;BMP_temperature;BMP_pressure;BME280_temperature;BME280_humidity;BME280_pressure;Samples;Min_cycle;Max_cycle;Signal;HPM_P1;HPM_P2
2023/12/31 00:00:24;;;;;;;6.18;2.38;;;8.60;99.90;;;;;;5090462;28;20082;-72
2023/12/31 00:02:50;;;;;;;11.93;3.28;;;8.70;99.90;;;;;;5090233;28;20044;-74
2023/12/31 00:05:15;;;;;;;6.07;2.63;;;8.70;99.90;;;;;;5090561;28;20391;-74
2023/12/31 00:07:41;;;;;;;5.75;2.70;;;8.70;99.90;;;;;;5090347;28;20040;-74
2023/12/31 00:10:08;;;;;;;4.97;2.60;;;8.60;99.90;;;;;;5090411;28;20040;-73
2023/12/31 00:12:34;;;;;;;4.47;2.40;;;8.50;99.90;;;;;;5090420;28;20101;-74
2023/12/31 00:14:59;;;;;;;5.35;2.42;;;8.50;99.90;;;;;;5090185;28;20079;-74
2023/12/31 00:17:25;;;;;;;9.80;2.83;;;8.50;99.90;;;;;;5089958;28;20066;-73
2023/12/31 00:19:50;;;;;;;4.25;2.40;;;8.50;99.90;;;;;;5090177;28;20036;-74
2023/12/31 00:22:16;;;;;;;2.95;2.22;;;8.50;99.90;;;;;;5090507;28;20043;-72
2023/12/31 00:24:42;;;;;;;5.40;2.30;;;8.40;99.90;;;;;;5090013;28;20032;-72
2023/12/31 00:27:07;;;;;;;4.32;2.80;;;8.40;99.90;;;;;;5090006;28;20118;-72
2023/12/31 00:29:33;;;;;;;6.43;2.47;;;8.40;99.90;;;;;;5090914;28;20355;-72
2023/12/31 00:31:59;;;;;;;5.28;2.83;;;8.50;99.90;;;;;;5077325;28;20081;-73
2023/12/31 00:34:25;;;;;;;4.53;2.55;;;8.50;99.90;;;;;;5093945;28;20042;-72
2023/12/31 00:36:51;;;;;;;5.63;3.05;;;8.50;99.90;;;;;;5093977;28;20075;-73
2023/12/31 00:39:16;;;;;;;6.03;2.60;;;8.40;99.90;;;;;;5095176;28;20075;-73
2023/12/31 00:41:42;;;;;;;3.78;2.35;;;8.50;99.90;;;;;;5094308;28;20045;-72
2023/12/31 00:44:08;;;;;;;3.60;2.42;;;8.50;99.90;;;;;;5093840;28;20111;-73
2023/12/31 00:46:33;;;;;;;3.55;2.08;;;8.60;99.90;;;;;;5093964;28;20044;-72
2023/12/31 00:48:59;;;;;;;6.20;2.15;;;8.60;99.90;;;;;;5093562;28;20043;-73
2023/12/31 00:51:25;;;;;;;3.25;2.03;;;8.60;99.90;;;;;;5094041;28;20098;-73
2023/12/31 00:53:51;;;;;;;6.10;2.55;;;8.50;99.90;;;;;;5093522;28;20043;-73
2023/12/31 00:56:16;;;;;;;4.68;2.17;;;8.50;99.90;;;;;;5093613;28;20139;-73
2023/12/31 00:58:42;;;;;;;3.85;2.22;;;8.60;99.90;;;;;;5093414;28;20083;-72
2023/12/31 01:01:08;;;;;;;4.22;2.13;;;8.60;99.90;;;;;;5076649;28;20040;-73
2023/12/31 01:03:34;;;;;;;5.72;2.53;;;8.60;99.90;;;;;;5093519;28;20036;-72
2023/12/31 01:06:07;;;;;;;3.60;1.90;;;8.50;99.90;;;;;;5093484;28;20047;-72
2023/12/31 01:08:33;;;;;;;5.22;2.58;;;8.60;99.90;;;;;;5092935;28;20055;-72
2023/12/31 01:10:59;;;;;;;4.38;1.92;;;8.50;99.90;;;;;;5093450;28;20044;-73
2023/12/31 01:13:24;;;;;;;4.47;2.55;;;8.50;99.90;;;;;;5093613;28;20063;-72
2023/12/31 01:15:50;;;;;;;3.28;1.85;;;8.50;99.90;;;;;;5093246;28;20079;-73
2023/12/31 01:18:16;;;;;;;5.28;1.95;;;8.50;99.90;;;;;;5094113;28;20070;-73
2023/12/31 01:20:42;;;;;;;3.00;2.00;;;8.40;99.90;;;;;;5093303;28;20032;-72
2023/12/31 01:23:07;;;;;;;3.85;2.20;;;8.40;99.90;;;;;;5093036;28;20036;-73
2023/12/31 01:25:33;;;;;;;3.85;1.92;;;8.50;99.90;;;;;;5093175;28;20043;-72
2023/12/31 01:27:59;;;;;;;4.63;2.60;;;8.40;99.90;;;;;;5092692;28;20044;-72
2023/12/31 01:30:24;;;;;;;3.95;2.10;;;8.40;99.90;;;;;;5092948;28;20044;-72
2023/12/31 01:32:50;;;;;;;5.45;2.33;;;8.40;99.90;;;;;;5093170;28;20052;-73
2023/12/31 01:35:18;;;;;;;2.97;2.03;;;8.30;99.90;;;;;;5092893;28;20079;-73
2023/12/31 01:37:45;;;;;;;3.17;2.28;;;8.30;99.90;;;;;;5092565;28;20086;-74
2023/12/31 01:40:11;;;;;;;4.47;2.00;;;8.20;99.90;;;;;;5093096;28;20039;-73
2023/12/31 01:42:36;;;;;;;4.22;2.40;;;8.20;99.90;;;;;;5092203;28;20491;-73
2023/12/31 01:45:03;;;;;;;5.13;2.80;;;8.20;99.90;;;;;;5092080;28;20510;-73
2023/12/31 01:47:29;;;;;;;3.65;2.45;;;8.10;99.90;;;;;;5092392;28;20554;-73
2023/12/31 01:49:56;;;;;;;3.00;2.25;;;8.10;99.90;;;;;;5075827;28;20040;-73
2023/12/31 01:52:24;;;;;;;4.72;2.45;;;8.10;99.90;;;;;;5092586;28;20047;-73
2023/12/31 01:54:53;;;;;;;4.80;2.40;;;8.10;99.90;;;;;;5092052;28;20048;-72
2023/12/31 01:57:25;;;;;;;6.35;2.63;;;7.90;99.90;;;;;;5075425;28;20043;-73
2023/12/31 01:59:53;;;;;;;6.57;2.67;;;8.00;99.90;;;;;;5092464;28;20044;-72
2023/12/31 02:02:21;;;;;;;4.88;2.45;;;8.00;99.90;;;;;;5092498;28;20475;-72
2023/12/31 02:04:47;;;;;;;5.25;3.05;;;7.90;99.90;;;;;;5091964;28;20457;-73
2023/12/31 02:07:12;;;;;;;4.85;2.60;;;7.90;99.90;;;;;;5091954;28;20040;-73
2023/12/31 02:09:38;;;;;;;5.25;2.80;;;7.80;99.90;;;;;;5092174;28;20495;-73
2023/12/31 02:12:05;;;;;;;3.95;2.67;;;7.80;99.90;;;;;;5092178;28;20039;-73
2023/12/31 02:14:31;;;;;;;3.95;2.60;;;7.90;99.90;;;;;;5092138;28;20624;-73
2023/12/31 02:16:56;;;;;;;6.88;2.70;;;7.90;99.90;;;;;;5091908;28;20114;-72
2023/12/31 02:19:23;;;;;;;6.22;3.28;;;7.80;99.90;;;;;;5091858;28;20060;-73
2023/12/31 02:21:49;;;;;;;8.50;3.20;;;7.80;99.90;;;;;;5092073;28;20070;-72
2023/12/31 02:24:19;;;;;;;5.68;3.35;;;7.90;99.90;;;;;;5091866;28;20140;-72
2023/12/31 02:26:45;;;;;;;4.07;2.72;;;7.80;99.90;;;;;;5091791;28;20540;-73
2023/12/31 02:29:10;;;;;;;5.35;2.90;;;7.80;99.90;;;;;;5091642;28;20075;-72
2023/12/31 02:31:36;;;;;;;6.32;2.97;;;7.80;99.90;;;;;;5092012;28;20039;-73
2023/12/31 02:34:02;;;;;;;5.95;2.97;;;7.90;99.90;;;;;;5091545;28;20086;-73
2023/12/31 02:36:28;;;;;;;6.15;3.05;;;7.80;99.90;;;;;;5074612;28;20043;-72
2023/12/31 02:38:53;;;;;;;6.93;3.03;;;7.80;99.90;;;;;;5091498;28;20040;-72
2023/12/31 02:41:19;;;;;;;4.50;3.05;;;8.00;99.90;;;;;;5091540;28;20473;-72
2023/12/31 02:43:45;;;;;;;4.07;2.92;;;7.90;99.90;;;;;;5091680;28;20036;-73
2023/12/31 02:46:10;;;;;;;5.82;3.08;;;7.90;99.90;;;;;;5090954;28;20039;-73
2023/12/31 02:48:36;;;;;;;3.95;2.70;;;8.00;99.90;;;;;;5091324;28;20040;-73
2023/12/31 02:51:02;;;;;;;4.43;2.45;;;7.90;99.90;;;;;;5091364;28;20097;-73
2023/12/31 02:53:27;;;;;;;4.25;2.75;;;7.90;99.90;;;;;;5091264;28;20112;-73
2023/12/31 02:55:53;;;;;;;2.67;2.10;;;7.90;99.90;;;;;;5092441;28;20076;-73
2023/12/31 02:58:19;;;;;;;4.78;2.17;;;7.90;99.90;;;;;;5092279;28;20044;-73
2023/12/31 03:00:44;;;;;;;3.83;2.50;;;8.00;99.90;;;;;;5091334;28;20478;-73
2023/12/31 03:03:10;;;;;;;3.40;2.03;;;7.90;99.90;;;;;;5091034;28;20411;-74
2023/12/31 03:05:35;;;;;;;3.90;1.83;;;7.90;99.90;;;;;;5090881;28;20031;-73
2023/12/31 03:08:01;;;;;;;3.53;1.95;;;7.80;99.90;;;;;;5090771;28;20430;-73
2023/12/31 03:10:27;;;;;;;2.53;1.90;;;7.80;99.90;;;;;;5091001;28;20040;-73
2023/12/31 03:12:53;;;;;;;3.05;1.67;;;7.80;99.90;;;;;;5074165;28;20047;-73
2023/12/31 03:15:20;;;;;;;2.88;2.10;;;7.90;99.90;;;;;;5074124;28;20044;-73
2023/12/31 03:17:45;;;;;;;3.60;1.70;;;7.70;99.90;;;;;;5090632;28;20040;-73
2023/12/31 03:20:11;;;;;;;2.40;1.75;;;7.90;99.90;;;;;;5091007;28;20083;-73
2023/12/31 03:22:37;;;;;;;3.28;1.88;;;7.90;99.90;;;;;;5090972;28;20036;-73
2023/12/31 03:25:04;;;;;;;5.25;1.90;;;7.70;99.90;;;;;;5090723;28;20040;-73
2023/12/31 03:27:29;;;;;;;4.97;2.00;;;7.80;99.90;;;;;;5090896;28;20548;-73
2023/12/31 03:29:55;;;;;;;2.65;1.73;;;7.90;99.90;;;;;;5091132;28;20036;-74
2023/12/31 03:32:20;;;;;;;3.50;2.25;;;7.90;99.90;;;;;;5090762;28;20122;-73
2023/12/31 03:34:46;;;;;;;3.17;1.92;;;7.80;99.90;;;;;;5090723;28;20044;-73
2023/12/31 03:37:12;;;;;;;3.97;1.60;;;7.80;99.90;;;;;;5090482;28;20071;-73
2023/12/31 03:39:37;;;;;;;3.47;1.73;;;7.90;99.90;;;;;;5090567;28;20415;-73
2023/12/31 03:42:03;;;;;;;5.65;2.22;;;7.90;99.90;;;;;;5090933;28;20067;-73
2023/12/31 03:44:29;;;;;;;2.78;1.92;;;8.00;99.90;;;;;;5090528;28;20047;-74
2023/12/31 03:46:54;;;;;;;3.45;1.88;;;7.90;99.90;;;;;;5091692;28;20032;-73
2023/12/31 03:49:20;;;;;;;3.83;2.30;;;8.00;99.90;;;;;;5088067;28;20078;-73
2023/12/31 03:51:45;;;;;;;3.20;1.60;;;7.90;99.90;;;;;;5089535;28;20047;-73
2023/12/31 03:54:11;;;;;;;3.95;1.73;;;8.00;99.90;;;;;;5081915;28;20039;-73
2023/12/31 03:56:37;;;;;;;2.95;1.67;;;8.00;99.90;;;;;;5083875;28;20044;-74
2023/12/31 03:59:02;;;;;;;4.07;1.75;;;8.00;99.90;;;;;;5090167;28;20122;-73
2023/12/31 04:01:28;;;;;;;3.40;1.80;;;7.90;99.90;;;;;;5090369;28;20152;-73
2023/12/31 04:03:54;;;;;;;2.55;1.55;;;8.00;99.90;;;;;;5090819;28;20434;-73
2023/12/31 04:06:19;;;;;;;4.20;2.17;;;7.90;99.90;;;;;;5088397;28;20114;-73
2023/12/31 04:08:46;;;;;;;2.75;2.00;;;8.00;99.90;;;;;;5098198;28;20062;-73
2023/12/31 04:11:12;;;;;;;3.00;2.17;;;8.00;99.90;;;;;;5097106;28;20036;-73
2023/12/31 04:13:41;;;;;;;4.38;1.75;;;8.00;99.90;;;;;;5096872;28;20514;-73
2023/12/31 04:16:08;;;;;;;4.95;1.65;;;7.90;99.90;;;;;;5097164;28;20047;-73
2023/12/31 04:18:34;;;;;;;3.30;1.73;;;8.00;99.90;;;;;;5096813;28;20040;-73
2023/12/31 04:21:00;;;;;;;5.03;1.73;;;7.90;99.90;;;;;;5097315;28;20503;-73
2023/12/31 04:23:26;;;;;;;2.50;1.80;;;8.00;99.90;;;;;;5097958;28;20040;-73
2023/12/31 04:25:51;;;;;;;3.55;1.52;;;8.00;99.90;;;;;;5096940;28;20039;-73
2023/12/31 04:28:17;;;;;;;3.40;1.75;;;8.00;99.90;;;;;;5096653;28;20036;-73
2023/12/31 04:30:43;;;;;;;1.83;1.30;;;8.00;99.90;;;;;;5094884;28;20564;-73
2023/12/31 04:33:09;;;;;;;5.07;1.85;;;8.00;99.90;;;;;;5087209;28;20048;-73
2023/12/31 04:35:34;;;;;;;3.63;1.90;;;8.00;99.90;;;;;;5087457;28;20119;-73
2023/12/31 04:38:00;;;;;;;3.97;2.17;;;8.00;99.90;;;;;;5075990;28;20040;-73
2023/12/31 04:40:26;;;;;;;6.70;1.92;;;7.90;99.90;;;;;;5077861;28;20029;-73
2023/12/31 04:42:51;;;;;;;2.95;1.75;;;8.00;99.90;;;;;;5077824;28;20033;-73
2023/12/31 04:45:17;;;;;;;3.20;2.22;;;8.00;99.90;;;;;;5076478;28;20051;-73
2023/12/31 04:47:43;;;;;;;3.33;2.00;;;8.00;99.90;;;;;;5075800;28;20381;-73
2023/12/31 04:50:08;;;;;;;5.18;1.80;;;7.90;99.90;;;;;;5077537;28;20094;-73
2023/12/31 04:52:34;;;;;;;2.63;2.15;;;8.00;99.90;;;;;;5076244;28;20036;-73
2023/12/31 04:55:00;;;;;;;3.05;2.00;;;8.00;99.90;;;;;;5076347;28;20052;-73
2023/12/31 04:57:25;;;;;;;6.93;2.10;;;8.10;99.90;;;;;;5077255;28;20071;-73
2023/12/31 04:59:51;;;;;;;4.88;2.53;;;7.90;99.90;;;;;;5059371;28;20071;-73
2023/12/31 05:02:17;;;;;;;4.72;2.33;;;8.00;99.90;;;;;;5076621;28;20062;-73
2023/12/31 05:04:43;;;;;;;4.10;2.47;;;8.10;99.90;;;;;;5059323;28;20032;-73
2023/12/31 05:07:10;;;;;;;4.53;2.47;;;8.10;99.90;;;;;;5075883;28;20044;-73
2023/12/31 05:09:36;;;;;;;3.33;2.33;;;8.00;99.90;;;;;;5076340;28;20080;-73
2023/12/31 05:12:02;;;;;;;4.30;2.40;;;8.10;99.90;;;;;;5076342;28;20095;-73
2023/12/31 05:14:28;;;;;;;3.83;2.30;;;8.00;99.90;;;;;;5075935;28;20086;-74
2023/12/31 05:16:53;;;;;;;3.40;2.22;;;8.10;99.90;;;;;;5072519;28;20067;-73
2023/12/31 05:19:19;;;;;;;4.35;2.67;;;8.10;99.90;;;;;;5072760;28;20435;-73
2023/12/31 05:21:45;;;;;;;5.15;2.70;;;8.10;99.90;;;;;;5073050;28;20048;-73
2023/12/31 05:24:11;;;;;;;4.50;2.35;;;8.10;99.90;;;;;;5072546;28;20052;-73
2023/12/31 05:26:37;;;;;;;4.80;2.15;;;8.10;99.90;;;;;;5073049;28;20040;-74
2023/12/31 05:29:02;;;;;;;4.93;3.03;;;8.10;99.90;;;;;;5072290;28;20041;-73
2023/12/31 05:31:28;;;;;;;2.97;2.20;;;8.20;99.90;;;;;;5073058;28;20079;-73
2023/12/31 05:33:53;;;;;;;6.03;3.30;;;8.20;99.90;;;;;;5072591;28;20036;-73
2023/12/31 05:36:19;;;;;;;5.88;3.25;;;8.10;99.90;;;;;;5072492;28;20060;-74
2023/12/31 05:38:44;;;;;;;4.03;2.70;;;8.20;99.90;;;;;;5072481;28;20128;-73
2023/12/31 05:41:10;;;;;;;9.32;2.97;;;8.10;99.90;;;;;;5056166;28;20040;-73
2023/12/31 05:43:36;;;;;;;5.57;2.70;;;8.20;99.90;;;;;;5072388;28;20059;-73
2023/12/31 05:46:01;;;;;;;3.72;2.60;;;8.20;99.90;;;;;;5072344;28;20086;-73
2023/12/31 05:48:27;;;;;;;4.40;2.75;;;8.20;99.90;;;;;;5073621;28;20040;-73
2023/12/31 05:50:53;;;;;;;3.45;2.42;;;8.20;99.90;;;;;;5072395;28;20049;-73
2023/12/31 05:53:18;;;;;;;4.38;2.65;;;8.20;99.90;;;;;;5073576;28;20040;-73
2023/12/31 05:55:46;;;;;;;3.10;2.20;;;8.20;99.90;;;;;;5073719;28;20067;-73
2023/12/31 05:58:11;;;;;;;4.65;2.90;;;8.30;99.90;;;;;;5071890;28;20094;-73
2023/12/31 06:00:37;;;;;;;8.98;2.42;;;8.20;99.90;;;;;;5073469;28;20128;-73
2023/12/31 06:03:03;;;;;;;4.22;2.67;;;8.30;99.90;;;;;;5073396;28;20032;-73
2023/12/31 06:05:29;;;;;;;4.78;2.65;;;8.30;99.90;;;;;;5072199;28;20076;-74
2023/12/31 06:07:54;;;;;;;3.67;2.30;;;8.30;99.90;;;;;;5073301;28;20560;-73
2023/12/31 06:10:20;;;;;;;4.20;2.28;;;8.30;99.90;;;;;;5072126;28;20036;-73
2023/12/31 06:12:45;;;;;;;3.35;2.20;;;8.20;99.90;;;;;;5073312;28;20033;-73
2023/12/31 06:15:11;;;;;;;3.90;2.25;;;8.30;99.90;;;;;;5072992;28;20036;-73
2023/12/31 06:17:39;;;;;;;4.25;2.10;;;8.30;99.90;;;;;;5071634;28;20121;-73
2023/12/31 06:20:06;;;;;;;4.38;2.20;;;8.20;99.90;;;;;;5071821;28;20170;-73
2023/12/31 06:22:33;;;;;;;5.03;2.30;;;8.30;99.90;;;;;;5071836;28;20052;-73
2023/12/31 06:24:58;;;;;;;4.97;2.15;;;8.30;99.90;;;;;;5071600;28;20044;-74
2023/12/31 06:27:24;;;;;;;3.10;2.13;;;8.30;99.90;;;;;;5071085;28;20044;-73
2023/12/31 06:29:50;;;;;;;3.45;2.42;;;8.30;99.90;;;;;;5071718;28;20036;-73
2023/12/31 06:32:20;;;;;;;3.25;2.40;;;8.30;99.90;;;;;;5071766;28;20041;-73
2023/12/31 06:34:46;;;;;;;5.13;2.75;;;8.30;99.90;;;;;;5071426;28;20044;-73
2023/12/31 06:37:12;;;;;;;3.20;2.25;;;8.40;99.90;;;;;;5071480;28;20047;-74
2023/12/31 06:39:38;;;;;;;3.00;2.33;;;8.30;99.90;;;;;;5071362;28;20222;-73
2023/12/31 06:42:03;;;;;;;4.88;2.65;;;8.30;99.90;;;;;;5071293;28;20040;-73
2023/12/31 06:44:30;;;;;;;4.00;2.60;;;8.40;99.90;;;;;;5072561;28;20036;-73
2023/12/31 06:46:56;;;;;;;4.70;2.38;;;8.40;99.90;;;;;;5070982;28;20044;-73
2023/12/31 06:49:22;;;;;;;2.42;2.15;;;8.40;99.90;;;;;;5054303;28;20049;-73
2023/12/31 06:51:47;;;;;;;2.92;2.13;;;8.30;99.90;;;;;;5071318;28;20407;-74
2023/12/31 06:54:13;;;;;;;4.20;2.75;;;8.30;99.90;;;;;;5070969;28;20044;-73
2023/12/31 06:56:39;;;;;;;4.63;2.88;;;8.30;99.90;;;;;;5070959;28;20456;-73
2023/12/31 06:59:05;;;;;;;4.68;2.47;;;8.40;99.90;;;;;;5070960;28;20044;-73
2023/12/31 07:01:30;;;;;;;5.05;2.33;;;8.40;99.90;;;;;;5070939;28;20062;-73
2023/12/31 07:03:56;;;;;;;4.25;2.55;;;8.40;99.90;;;;;;5070833;28;20123;-73
2023/12/31 07:06:22;;;;;;;3.83;1.98;;;8.50;99.90;;;;;;5070815;28;20127;-73
2023/12/31 07:08:47;;;;;;;4.07;2.85;;;8.40;99.90;;;;;;5070668;28;20040;-73
2023/12/31 07:11:14;;;;;;;4.30;1.92;;;8.40;99.90;;;;;;5071025;28;20136;-73
2023/12/31 07:13:40;;;;;;;4.20;2.55;;;8.50;99.90;;;;;;5070691;28;20051;-73
2023/12/31 07:16:06;;;;;;;5.25;2.47;;;8.50;99.90;;;;;;5070636;28;20123;-73
2023/12/31 07:18:32;;;;;;;5.25;2.30;;;8.40;99.90;;;;;;5070288;28;20048;-73
2023/12/31 07:20:58;;;;;;;3.80;2.50;;;8.40;99.90;;;;;;5070920;28;20040;-73
2023/12/31 07:23:24;;;;;;;3.25;2.60;;;8.50;99.90;;;;;;5070425;28;20491;-73
2023/12/31 07:25:49;;;;;;;3.88;2.50;;;8.50;99.90;;;;;;5070781;28;20037;-73
2023/12/31 07:28:15;;;;;;;3.38;2.28;;;8.50;99.90;;;;;;5070331;28;20040;-73
2023/12/31 07:30:41;;;;;;;3.45;2.35;;;8.60;99.90;;;;;;5070543;28;20581;-73
2023/12/31 07:33:06;;;;;;;4.22;2.33;;;8.60;99.90;;;;;;5053676;28;20047;-73
2023/12/31 07:35:36;;;;;;;3.72;2.33;;;8.60;99.90;;;;;;5070743;28;20044;-73
2023/12/31 07:38:07;;;;;;;3.63;2.15;;;8.60;99.90;;;;;;5070136;28;20044;-73
2023/12/31 07:40:33;;;;;;;4.57;2.25;;;8.60;99.90;;;;;;5070080;28;20040;-73
2023/12/31 07:42:58;;;;;;;4.32;2.35;;;8.60;99.90;;;;;;5070290;28;20496;-73
2023/12/31 07:45:24;;;;;;;3.80;2.10;;;8.60;99.90;;;;;;5070261;28;20032;-74
2023/12/31 07:47:50;;;;;;;3.67;2.10;;;8.60;99.90;;;;;;5053619;28;20047;-73
2023/12/31 07:50:16;;;;;;;3.72;2.28;;;8.60;99.90;;;;;;5071271;28;20036;-73
2023/12/31 07:52:41;;;;;;;2.80;1.95;;;8.70;99.90;;;;;;5070609;28;20066;-75
2023/12/31 07:55:10;;;;;;;4.35;2.25;;;8.60;99.90;;;;;;5069178;28;20043;-73
2023/12/31 07:57:36;;;;;;;2.80;1.85;;;8.60;99.90;;;;;;5069080;28;20059;-73
2023/12/31 08:00:07;;;;;;;2.90;2.30;;;8.70;99.90;;;;;;5069314;28;20119;-74
2023/12/31 08:02:33;;;;;;;4.18;2.13;;;8.70;99.90;;;;;;5069253;28;20039;-74
2023/12/31 08:04:58;;;;;;;4.25;2.20;;;8.70;99.90;;;;;;5069195;28;20040;-74
2023/12/31 08:07:24;;;;;;;3.97;2.58;;;8.70;99.90;;;;;;5068951;28;20132;-74
2023/12/31 08:09:50;;;;;;;2.85;2.30;;;8.70;99.90;;;;;;5068923;28;20076;-73
2023/12/31 08:12:15;;;;;;;3.20;2.13;;;8.80;99.90;;;;;;5068817;28;20036;-74
2023/12/31 08:14:41;;;;;;;6.00;2.25;;;8.70;99.90;;;;;;5068617;28;20098;-74
2023/12/31 08:17:07;;;;;;;4.47;2.08;;;8.80;99.90;;;;;;5068628;28;20040;-74
2023/12/31 08:19:32;;;;;;;3.30;1.98;;;8.80;99.90;;;;;;5069068;28;20488;-73
2023/12/31 08:21:58;;;;;;;5.10;2.25;;;8.80;99.90;;;;;;5069054;28;20087;-74
2023/12/31 08:24:24;;;;;;;3.42;2.40;;;8.80;99.90;;;;;;5069218;28;20079;-73
2023/12/31 08:26:51;;;;;;;4.03;2.42;;;8.80;99.90;;;;;;5079687;28;20039;-74
2023/12/31 08:29:16;;;;;;;3.38;2.22;;;8.70;99.90;;;;;;5085802;28;20067;-73
2023/12/31 08:31:47;;;;;;;2.00;1.65;;;8.80;99.90;;;;;;5088970;28;20064;-73
2023/12/31 08:34:13;;;;;;;3.10;2.05;;;8.80;99.90;;;;;;5089155;28;20047;-76
2023/12/31 08:36:38;;;;;;;4.18;2.30;;;8.70;99.90;;;;;;5090289;28;20036;-74
2023/12/31 08:39:04;;;;;;;4.35;1.90;;;8.80;99.90;;;;;;5088224;28;20028;-74
2023/12/31 08:41:29;;;;;;;3.60;2.08;;;8.80;99.90;;;;;;5088897;28;20032;-73
2023/12/31 08:43:55;;;;;;;3.00;1.85;;;8.70;99.90;;;;;;5088721;28;20063;-73
2023/12/31 08:46:21;;;;;;;3.13;2.25;;;8.80;99.90;;;;;;5072015;28;20040;-73
2023/12/31 08:48:46;;;;;;;2.25;1.75;;;8.80;99.90;;;;;;5071928;28;20050;-73
2023/12/31 08:51:12;;;;;;;2.83;2.03;;;8.80;99.90;;;;;;5090577;28;20135;-74
2023/12/31 08:53:37;;;;;;;3.10;1.98;;;8.80;99.90;;;;;;5054396;28;1088152;-73
2023/12/31 08:56:04;;;;;;;2.97;1.65;;;8.80;99.90;;;;;;5094544;28;20154;-75
2023/12/31 08:58:29;;;;;;;2.83;1.90;;;8.80;99.90;;;;;;5092556;28;20048;-74
2023/12/31 09:00:57;;;;;;;6.25;2.17;;;8.80;99.90;;;;;;5093257;28;20556;-74
2023/12/31 09:03:22;;;;;;;3.35;1.95;;;8.80;99.90;;;;;;5086988;28;20174;-74
2023/12/31 09:05:48;;;;;;;5.00;2.20;;;8.80;99.90;;;;;;5083990;28;20128;-74
2023/12/31 09:08:14;;;;;;;3.60;2.10;;;8.90;99.90;;;;;;5074247;28;20122;-74
2023/12/31 09:10:39;;;;;;;3.78;2.10;;;8.90;99.90;;;;;;5091847;28;20040;-75
2023/12/31 09:13:05;;;;;;;4.18;1.83;;;8.90;99.90;;;;;;5078529;28;20118;-75
2023/12/31 09:15:30;;;;;;;3.00;2.53;;;9.00;99.90;;;;;;5093153;28;20048;-75
2023/12/31 09:17:56;;;;;;;4.07;2.15;;;9.00;99.90;;;;;;5092674;28;20044;-75
2023/12/31 09:20:22;;;;;;;2.50;1.70;;;9.00;99.90;;;;;;5086157;28;20130;-75
2023/12/31 09:22:52;;;;;;;6.15;3.05;;;8.90;99.90;;;;;;5086186;28;20032;-75
2023/12/31 09:25:18;;;;;;;3.33;2.17;;;9.00;99.90;;;;;;5087222;28;20037;-75
2023/12/31 09:27:43;;;;;;;3.28;2.08;;;9.10;99.90;;;;;;5084203;28;20453;-75
2023/12/31 09:30:09;;;;;;;3.28;2.13;;;9.10;99.90;;;;;;5086763;28;20032;-75
2023/12/31 09:32:35;;;;;;;3.20;2.00;;;9.10;99.90;;;;;;5092686;28;20459;-75
2023/12/31 09:35:00;;;;;;;3.20;2.25;;;9.10;99.90;;;;;;5092628;28;20028;-75
2023/12/31 09:37:26;;;;;;;5.38;2.20;;;9.20;99.90;;;;;;5085305;28;20040;-77
2023/12/31 09:39:52;;;;;;;4.43;2.08;;;9.20;99.90;;;;;;5085608;28;20044;-76
2023/12/31 09:42:33;;;;;;;3.30;2.33;;;9.20;99.90;;;;;;5092611;28;20567;-76
2023/12/31 09:45:02;;;;;;;3.85;2.17;;;9.10;99.90;;;;;;5092498;28;20110;-75
2023/12/31 09:47:28;;;;;;;4.28;1.90;;;9.30;99.90;;;;;;5078005;28;20518;-75
2023/12/31 09:49:55;;;;;;;6.60;2.33;;;9.30;99.90;;;;;;5092596;28;20040;-75
2023/12/31 09:52:22;;;;;;;5.03;2.25;;;9.30;99.90;;;;;;5078240;28;20415;-74
2023/12/31 09:54:48;;;;;;;5.78;2.70;;;9.20;99.90;;;;;;5092009;28;20075;-74
2023/12/31 09:57:16;;;;;;;3.72;2.60;;;9.30;99.90;;;;;;5091781;28;20043;-75
2023/12/31 09:59:44;;;;;;;4.28;2.55;;;9.30;99.90;;;;;;5092079;28;20458;-75
2023/12/31 10:02:18;;;;;;;3.67;2.53;;;9.40;99.90;;;;;;5091340;28;20032;-73
2023/12/31 10:04:44;;;;;;;4.57;2.40;;;9.30;99.90;;;;;;5084635;28;20048;-74
2023/12/31 10:07:12;;;;;;;3.55;2.65;;;9.30;99.90;;;;;;5085412;28;20039;-75
2023/12/31 10:09:39;;;;;;;5.63;2.80;;;9.30;99.90;;;;;;5091953;28;20035;-73
2023/12/31 10:12:05;;;;;;;4.65;2.97;;;9.40;99.90;;;;;;5080560;28;20045;-75
2023/12/31 10:14:31;;;;;;;4.90;2.45;;;9.40;99.90;;;;;;5074680;28;20098;-74
2023/12/31 10:16:56;;;;;;;4.53;2.50;;;9.40;99.90;;;;;;5090574;28;20044;-75
2023/12/31 10:19:23;;;;;;;4.22;2.53;;;9.30;99.90;;;;;;5075625;28;20524;-74
2023/12/31 10:21:48;;;;;;;5.15;3.05;;;9.40;99.90;;;;;;5088107;28;20119;-74
2023/12/31 10:24:14;;;;;;;6.38;2.47;;;9.40;99.90;;;;;;5089273;28;20115;-75
2023/12/31 10:26:40;;;;;;;4.13;2.80;;;9.40;99.90;;;;;;5091210;28;20396;-74
2023/12/31 10:29:05;;;;;;;3.50;2.47;;;9.50;99.90;;;;;;5090805;28;20089;-74
2023/12/31 10:31:32;;;;;;;3.92;2.75;;;9.40;99.90;;;;;;5090434;28;20047;-73
2023/12/31 10:34:17;;;;;;;3.47;2.30;;;9.50;99.90;;;;;;5090820;28;20039;-73
2023/12/31 10:36:47;;;;;;;5.13;3.05;;;9.50;99.90;;;;;;5078146;28;20090;-74
2023/12/31 10:39:41;;;;;;;5.03;3.72;;;9.50;99.90;;;;;;5090948;28;20036;-73
2023/12/31 10:42:08;;;;;;;3.95;2.63;;;9.60;99.90;;;;;;5082547;28;20113;-73
2023/12/31 10:44:36;;;;;;;4.25;2.40;;;9.60;99.90;;;;;;5091081;28;20528;-73
2023/12/31 10:47:06;;;;;;;4.40;2.90;;;9.60;99.90;;;;;;5091021;28;20032;-73
2023/12/31 10:49:33;;;;;;;4.32;2.28;;;9.70;99.90;;;;;;5090763;28;20105;-72
2023/12/31 10:52:04;;;;;;;3.25;2.42;;;9.70;99.90;;;;;;5073827;28;20031;-74
2023/12/31 10:54:49;;;;;;;5.60;3.88;;;9.70;99.90;;;;;;5090911;28;20123;-74
2023/12/31 10:57:16;;;;;;;4.50;2.78;;;9.70;99.90;;;;;;5090663;28;20036;-75
2023/12/31 10:59:43;;;;;;;3.72;2.47;;;9.70;99.90;;;;;;5091075;28;20170;-74
2023/12/31 11:02:16;;;;;;;4.03;3.05;;;9.80;99.90;;;;;;5091227;28;20071;-74
2023/12/31 11:04:45;;;;;;;;;;;9.80;99.90;;;;;;5091642;28;20051;-74
2023/12/31 11:07:16;;;;;;;3.65;2.58;;;9.80;99.90;;;;;;5090814;28;19920;-74
2023/12/31 11:09:48;;;;;;;4.18;2.92;;;9.90;99.90;;;;;;5090978;28;20080;-74
2023/12/31 11:12:15;;;;;;;3.72;2.35;;;10.00;99.90;;;;;;5091393;28;20043;-74
2023/12/31 11:15:06;;;;;;;3.25;2.55;;;10.00;99.90;;;;;;5090021;28;20047;-74
2023/12/31 11:17:56;;;;;;;4.10;2.95;;;10.00;99.90;;;;;;5090506;28;20050;-74
2023/12/31 11:20:40;;;;;;;4.03;2.42;;;10.00;99.90;;;;;;5091179;28;20131;-74
2023/12/31 11:23:11;;;;;;;5.50;3.70;;;9.90;99.90;;;;;;5092037;28;20558;-74
2023/12/31 11:25:40;;;;;;;4.53;3.20;;;9.90;99.90;;;;;;5090752;28;20036;-74
2023/12/31 11:28:09;;;;;;;4.55;3.03;;;9.90;99.90;;;;;;5090312;28;20036;-73
2023/12/31 11:30:49;;;;;;;4.05;2.90;;;9.80;99.90;;;;;;5090362;28;20046;-74
2023/12/31 11:33:19;;;;;;;4.38;2.83;;;9.80;99.90;;;;;;5088385;28;20048;-75
2023/12/31 11:35:46;;;;;;;6.35;3.22;;;9.80;99.90;;;;;;5090529;28;20054;-74
2023/12/31 11:38:12;;;;;;;6.70;3.15;;;9.70;99.90;;;;;;5090510;28;20411;-74
2023/12/31 11:40:39;;;;;;;4.97;2.72;;;9.70;99.90;;;;;;5090638;28;20043;-74
2023/12/31 11:43:14;;;;;;;4.13;3.10;;;9.60;99.90;;;;;;5088028;28;20044;-73
2023/12/31 11:45:45;;;;;;;4.63;3.15;;;9.70;99.90;;;;;;5078550;28;20496;-73
2023/12/31 11:48:24;;;;;;;4.28;2.83;;;9.60;99.90;;;;;;5083498;28;20044;-73
2023/12/31 11:50:56;;;;;;;7.38;3.80;;;9.60;99.90;;;;;;5082585;28;20434;-73
2023/12/31 11:53:24;;;;;;;6.43;4.10;;;9.50;99.90;;;;;;5081156;28;20045;-73
2023/12/31 11:55:58;;;;;;;9.13;3.13;;;9.40;99.90;;;;;;5084533;28;20043;-73
2023/12/31 11:58:28;;;;;;;5.60;3.60;;;9.40;99.90;;;;;;5065510;28;20518;-73
2023/12/31 12:00:54;;;;;;;7.40;3.67;;;9.30;99.90;;;;;;5083858;28;20172;-73
2023/12/31 12:03:19;;;;;;;6.88;2.90;;;9.40;99.90;;;;;;5080216;28;20036;-73
2023/12/31 12:05:50;;;;;;;3.58;1.92;;;9.30;99.90;;;;;;5071305;28;20076;-72
2023/12/31 12:08:16;;;;;;;2.20;1.20;;;9.10;99.90;;;;;;5069904;28;20115;-73
2023/12/31 12:10:42;;;;;;;3.60;1.10;;;9.00;99.90;;;;;;5070407;28;20649;-73
2023/12/31 12:13:08;;;;;;;2.22;1.30;;;8.90;99.90;;;;;;5072388;28;20040;-72
2023/12/31 12:15:35;;;;;;;1.80;1.00;;;8.90;99.90;;;;;;5081989;28;20036;-72
2023/12/31 12:18:11;;;;;;;1.42;0.80;;;8.80;99.90;;;;;;5089907;28;20047;-71
2023/12/31 12:20:37;;;;;;;2.00;1.25;;;8.80;99.90;;;;;;5090254;28;20123;-72
2023/12/31 12:23:02;;;;;;;2.30;1.23;;;8.90;99.90;;;;;;5091450;28;20071;-72
2023/12/31 12:25:28;;;;;;;2.25;1.60;;;8.90;99.90;;;;;;5092341;28;20035;-72
2023/12/31 12:27:54;;;;;;;4.10;1.60;;;8.90;99.90;;;;;;5094055;28;20032;-71
2023/12/31 12:30:20;;;;;;;4.18;1.58;;;8.80;99.90;;;;;;5095573;28;20047;-72
2023/12/31 12:32:46;;;;;;;3.15;1.65;;;8.70;99.90;;;;;;5094483;28;20384;-72
2023/12/31 12:35:14;;;;;;;1.80;1.33;;;8.70;99.90;;;;;;5093836;28;20035;-72
2023/12/31 12:37:39;;;;;;;2.72;1.00;;;8.60;99.90;;;;;;5093876;28;20047;-72
2023/12/31 12:40:06;;;;;;;1.00;0.57;;;8.70;99.90;;;;;;5077197;28;20040;-73
2023/12/31 12:42:33;;;;;;;1.63;0.90;;;8.80;99.90;;;;;;5094068;28;20044;-72
2023/12/31 12:44:58;;;;;;;1.13;0.50;;;8.70;99.90;;;;;;5095197;28;20036;-72
2023/12/31 12:47:24;;;;;;;2.40;0.77;;;8.80;99.90;;;;;;5093829;28;20047;-73
2023/12/31 12:49:50;;;;;;;3.70;0.98;;;8.70;99.90;;;;;;5093793;28;20564;-72
2023/12/31 12:52:16;;;;;;;0.98;0.60;;;8.80;99.90;;;;;;5093809;28;20040;-72
2023/12/31 12:54:42;;;;;;;2.45;0.60;;;8.90;99.90;;;;;;5088701;28;20442;-73